Flight Track Log - Related Links

Times and Time Zones

All times are in EDT time to prevent confusion due to time zone crossing. See the RPA3321 flight status page for this flight to view local times or setup timezone preferences in your user account.

Time Position Orientation Groundspeed Altitude Reporting Facility
EDT Latitude Longitude Course Direction KTS MPH feet Rate Location/Type
Mon 05:46:40 AM 42.7736 -73.8064 119° Southeast 152 175 1,500  Level Boston Center
Mon 05:47:49 AM 42.8294 -73.8500 330° Northwest 227 261 3,500 2,500 Climbing Boston Center
Mon 05:48:00 AM 42.5153 -74.0095 171° South  Level Estimated
Mon 05:48:52 AM 42.8953 -73.9053 328° Northwest 270 311 7,000  Level Boston Center
Mon 05:49:00 AM 42.4373 -74.0783 180° South  Level Estimated
Mon 05:49:54 AM 42.9256 -73.9797 299° West 254 292 9,700  Level Boston Center
Mon 05:50:00 AM 42.3593 -74.1470 172° South  Level Estimated
Mon 05:50:52 AM 42.9364 -74.0933 277° West 270 311 12,100  Level Boston Center
Mon 05:51:00 AM 42.3139 -74.0371 119° Southeast  Level FlightAware Approximate
Mon 05:51:54 AM 42.8631 -74.1256 198° South 227 261 14,600  Level Boston Center
Mon 05:52:53 AM 42.7700 -74.0806 160° South 267 307 17,000 2,269 Climbing Boston Center
Mon 05:53:53 AM 42.6622 -74.0269 160° South 323 372 19,100 1,884 Climbing Boston Center
Mon 05:54:54 AM 42.5711 -73.9850 161° South 363 418 20,800 1,664 Climbing Boston Center
Mon 05:55:52 AM 42.4697 -73.9375 161° South 384 442 22,400 1,100 Climbing Boston Center
Mon 05:56:54 AM 42.3619 -73.8844 160° South 394 453 23,000 900 Climbing Boston Center
Mon 05:57:52 AM 42.2564 -73.8342 161° South 404 465 24,200 1,300 Climbing Boston Center
Mon 05:58:54 AM 42.1444 -73.7814 161° South 410 472 25,600 885 Climbing Boston Center
Mon 05:59:54 AM 42.0347 -73.7286 160° South 415 478 26,000 202 Climbing Boston Center
Mon 06:00:53 AM 41.9244 -73.7069 172° South 415 478 26,000  Level Boston Center
Mon 06:01:53 AM 41.8258 -73.7606 202° Southwest 381 438 26,000  Level Boston Center
Mon 06:03:28 AM 41.6775 -73.8511 205° Southwest 367 422 26,000  Level New York Center
Mon 06:04:28 AM 41.5864 -73.9108 206° Southwest 379 436 26,000  Level New York Center
Mon 06:05:27 AM 41.4933 -73.9672 204° Southwest 374 430 26,000  Level New York Center
Mon 06:06:27 AM 41.3956 -74.0317 206° Southwest 374 430 26,000  Level New York Center
Mon 06:07:29 AM 41.3025 -74.0881 204° Southwest 374 430 26,000  Level New York Center
Mon 06:08:29 AM 41.2092 -74.1439 204° Southwest 374 430 26,000  Level New York Center
Mon 06:09:27 AM 41.1097 -74.2022 204° Southwest 379 436 26,000  Level New York Center
Mon 06:10:28 AM 41.0161 -74.2636 206° Southwest 384 442 26,000  Level New York Center
Mon 06:11:29 AM 40.9186 -74.3217 204° Southwest 384 442 26,000  Level New York Center
Mon 06:12:27 AM 40.8231 -74.3797 205° Southwest 384 442 26,000  Level New York Center
Mon 06:13:27 AM 40.7275 -74.4406 206° Southwest 384 442 26,000 -197 Level New York Center
Mon 06:14:29 AM 40.6342 -74.4983 205° Southwest 384 442 25,600 -650 Descending New York Center
Mon 06:15:27 AM 40.5406 -74.5589 206° Southwest 384 442 24,700 -958 Descending New York Center
Mon 06:16:28 AM 40.4489 -74.6219 208° Southwest 384 442 23,700 -942 Descending New York Center
Mon 06:17:28 AM 40.3731 -74.7047 220° Southwest 377 434 22,800 -857 Descending New York Center
Mon 06:18:27 AM 40.3669 -74.8269 266° West 316 364 22,000 -403 Descending New York Center
Mon 06:19:27 AM 40.3317 -74.9422 248° West 327 376 22,000  Level New York Center
Mon 06:20:28 AM 40.2839 -75.0508 240° Southwest 341 392 22,000  Level New York Center
Mon 06:21:28 AM 40.2342 -75.1592 239° Southwest 346 398 22,000  Level New York Center
Mon 06:22:28 AM 40.1842 -75.2700 239° Southwest 346 398 22,000  Level New York Center
Mon 06:23:28 AM 40.1342 -75.3756 238° Southwest 352 405 22,000  Level New York Center
Mon 06:24:29 AM 40.0678 -75.4689 227° Southwest 352 405 22,000  Level New York Center
Mon 06:25:29 AM 40.0017 -75.5619 227° Southwest 352 405 22,000  Level New York Center
Mon 06:26:30 AM 39.9356 -75.6494 225° Southwest 352 405 22,000  Level New York Center
Mon 06:27:27 AM 39.8769 -75.7536 234° Southwest 357 411 22,000 -513 Level New York Center
Mon 06:28:27 AM 39.8097 -75.8622 231° Southwest 357 411 21,000 -1,422 Descending New York Center
Mon 06:30:20 AM 39.7000 -76.0333 230° Southwest 336 387 17,900 -1,630 Descending Potomac TRACON
Mon 06:31:20 AM 39.6333 -76.1333 229° Southwest 334 384 16,300 -1,686 Descending Potomac TRACON
Mon 06:32:21 AM 39.5833 -76.2167 232° Southwest 317 365 14,500 -1,722 Descending Potomac TRACON
Mon 06:33:15 AM 39.5333 -76.3000 232° Southwest 315 362 13,000 -1,316 Descending Potomac TRACON
Mon 06:34:15 AM 39.4667 -76.3833 224° Southwest 311 358 12,000 -500 Descending Potomac TRACON
Mon 06:35:15 AM 39.4000 -76.4500 218° Southwest 314 361 12,000  Level Potomac TRACON
Mon 06:36:09 AM 39.3333 -76.5167 218° Southwest 302 348 12,000 -579 Level Potomac TRACON
Mon 06:37:09 AM 39.2833 -76.5667 218° Southwest 291 335 10,900 -1,000 Descending Potomac TRACON
Mon 06:38:09 AM 39.2167 -76.6333 218° Southwest 284 327 10,000 -474 Descending Potomac TRACON
Mon 06:39:03 AM 39.1500 -76.6833 210° Southwest 283 326 10,000 -286 Level Potomac TRACON
Mon 06:40:57 AM 39.1000 -76.8667 251° West 274 315 9,200 -724 Descending Potomac TRACON
Mon 06:41:57 AM 39.0667 -76.9500 243° Southwest 272 313 7,900 -1,450 Descending Potomac TRACON
Mon 06:42:57 AM 39.0500 -77.0333 256° West 255 293 6,300 -1,388 Descending Potomac TRACON
Mon 06:43:58 AM 39.0167 -77.1167 243° Southwest 223 257 5,100 -1,304 Descending Potomac TRACON
Mon 06:44:52 AM 39.0000 -77.1667 247° West 194 223 3,800 -1,316 Descending Potomac TRACON
Mon 06:45:52 AM 38.9500 -77.1500 165° South 217 250 2,600 -1,050 Descending Potomac TRACON
Mon 06:46:52 AM 38.9167 -77.1000 131° Southeast 192 221 1,700 -900 Descending Potomac TRACON
Mon 06:47:52 AM 38.9000 -77.0667 123° Southeast 152 175 800 -900 Descending Potomac TRACON

Login

Don't have an account? Register now (free) for customized features, flight alerts, and more!